createdAt,value
2023-02-06T00:00:01.953Z,0.00
2023-02-06T00:03:05.136Z,0.00
2023-02-06T00:06:09.018Z,-0.10
2023-02-06T00:09:13.591Z,-0.10
2023-02-06T00:12:16.752Z,-0.10
2023-02-06T00:15:20.066Z,-0.20
2023-02-06T00:18:23.232Z,-0.30
2023-02-06T00:21:27.486Z,-0.30
2023-02-06T00:24:32.181Z,-0.30
2023-02-06T00:27:35.721Z,-0.40
2023-02-06T00:30:38.932Z,-0.40
2023-02-06T00:33:42.889Z,-0.40
2023-02-06T00:36:46.072Z,-0.40
2023-02-06T00:39:50.547Z,-0.50
2023-02-06T00:42:53.877Z,-0.50
2023-02-06T00:45:58.622Z,-0.50
2023-02-06T00:49:01.887Z,-0.50
2023-02-06T00:52:05.177Z,-0.50
2023-02-06T00:55:09.852Z,-0.60
2023-02-06T00:58:13.044Z,-0.60
2023-02-06T01:01:16.182Z,-0.60
2023-02-06T01:04:19.345Z,-0.60
2023-02-06T01:07:22.503Z,-0.60
2023-02-06T01:10:27.057Z,-0.70
2023-02-06T01:13:30.226Z,-0.70
2023-02-06T01:16:33.516Z,-0.70
2023-02-06T01:19:37.662Z,-0.70
2023-02-06T01:22:41.804Z,-0.70
2023-02-06T01:25:46.361Z,-0.80
2023-02-06T01:28:50.105Z,-0.80
2023-02-06T01:31:53.304Z,-0.80
2023-02-06T01:34:56.466Z,-0.80
2023-02-06T01:37:59.576Z,-0.80
2023-02-06T01:41:04.733Z,-0.90
2023-02-06T01:44:17.400Z,-0.90
2023-02-06T01:47:20.517Z,-1.00
2023-02-06T01:50:23.923Z,-1.00
2023-02-06T01:53:28.186Z,-1.10
2023-02-06T01:56:38.345Z,-1.10
2023-02-06T01:59:45.844Z,-1.10
2023-02-06T02:02:50.145Z,-1.20
2023-02-06T02:05:55.205Z,-1.20
2023-02-06T02:08:58.855Z,-1.20
2023-02-06T02:12:03.735Z,-1.20
2023-02-06T02:15:07.771Z,-1.30
2023-02-06T02:18:26.981Z,-1.20
2023-02-06T02:21:58.320Z,-1.20
2023-02-06T02:25:28.362Z,-1.30
2023-02-06T02:29:00.546Z,-1.20
2023-02-06T02:32:39.604Z,-1.30
2023-02-06T02:35:51.467Z,-1.30
2023-02-06T02:39:06.350Z,-1.40
2023-02-06T02:42:14.488Z,-1.40
2023-02-06T02:45:22.245Z,-1.40
2023-02-06T02:48:29.730Z,-1.40
2023-02-06T02:51:36.619Z,-1.40
2023-02-06T02:54:39.830Z,-1.40
2023-02-06T02:57:44.441Z,-1.50
2023-02-06T03:00:52.255Z,-1.50
2023-02-06T03:03:57.828Z,-1.50
2023-02-06T03:07:25.553Z,-1.60
2023-02-06T03:10:34.742Z,-1.50
2023-02-06T03:13:43.342Z,-1.60
2023-02-06T03:16:51.221Z,-1.60
2023-02-06T03:19:59.981Z,-1.50
2023-02-06T03:23:07.745Z,-1.60
2023-02-06T03:26:15.471Z,-1.60
2023-02-06T03:29:20.169Z,-1.70
2023-02-06T03:32:26.772Z,-1.70
2023-02-06T03:35:33.672Z,-1.70
2023-02-06T03:38:38.564Z,-1.80
2023-02-06T03:41:42.825Z,-1.80
2023-02-06T03:44:55.640Z,-1.70
2023-02-06T03:48:02.532Z,-1.80
2023-02-06T03:51:12.481Z,-1.80
2023-02-06T03:54:20.980Z,-1.80
2023-02-06T03:57:25.221Z,-1.80
2023-02-06T04:00:29.532Z,-1.80
2023-02-06T04:03:33.443Z,-1.90
2023-02-06T04:06:36.665Z,-1.80
2023-02-06T04:09:41.669Z,-1.90
2023-02-06T04:12:44.941Z,-1.80
2023-02-06T04:15:48.081Z,-1.80
2023-02-06T04:18:51.250Z,-1.80
2023-02-06T04:21:54.446Z,-1.90
2023-02-06T04:24:58.933Z,-1.90
2023-02-06T04:28:02.216Z,-1.80
2023-02-06T04:31:05.814Z,-1.90
2023-02-06T04:34:09.300Z,-1.90
2023-02-06T04:37:13.451Z,-1.90
2023-02-06T04:40:18.341Z,-2.00
2023-02-06T04:43:21.476Z,-2.00
2023-02-06T04:46:24.741Z,-2.10
2023-02-06T04:49:27.928Z,-2.10
2023-02-06T04:52:31.074Z,-2.10
2023-02-06T04:55:36.501Z,-2.00
2023-02-06T04:58:40.741Z,-2.00
2023-02-06T05:01:43.985Z,-1.90
2023-02-06T05:04:47.149Z,-2.00
2023-02-06T05:07:50.273Z,-1.90
2023-02-06T05:10:55.192Z,-1.90
2023-02-06T05:13:58.315Z,-1.90
2023-02-06T05:17:01.468Z,-2.00
2023-02-06T05:20:04.971Z,-2.10
2023-02-06T05:23:08.156Z,-2.10
2023-02-06T05:26:12.695Z,-2.20
2023-02-06T05:29:15.842Z,-2.20
2023-02-06T05:32:19.812Z,-2.20
2023-02-06T05:35:22.985Z,-2.20
2023-02-06T05:38:26.122Z,-2.30
2023-02-06T05:41:30.651Z,-2.30
2023-02-06T05:44:33.793Z,-2.40
2023-02-06T05:47:37.194Z,-2.30
2023-02-06T05:50:42.030Z,-2.30
2023-02-06T05:53:46.258Z,-2.20
2023-02-06T05:56:50.753Z,-2.10
2023-02-06T05:59:53.882Z,-2.00
2023-02-06T06:02:57.034Z,-1.90
2023-02-06T06:06:00.616Z,-1.90
2023-02-06T06:09:04.240Z,-1.80
2023-02-06T06:12:09.124Z,-1.80
2023-02-06T06:15:12.272Z,-1.80
2023-02-06T06:18:15.422Z,-1.80
2023-02-06T06:21:18.601Z,-1.70
2023-02-06T06:24:21.739Z,-1.70
2023-02-06T06:27:26.405Z,-1.70
2023-02-06T06:30:29.815Z,-1.80
2023-02-06T06:33:33.022Z,-1.80
2023-02-06T06:36:37.358Z,-1.80
2023-02-06T06:39:40.609Z,-1.80
2023-02-06T06:42:45.179Z,-1.90
2023-02-06T06:45:48.519Z,-2.00
2023-02-06T06:48:51.739Z,-1.90
2023-02-06T06:51:54.944Z,-1.90
2023-02-06T06:54:58.167Z,-1.90
2023-02-06T06:58:02.681Z,-1.80
2023-02-06T07:01:06.132Z,-1.80
2023-02-06T07:04:09.405Z,-1.90
2023-02-06T07:07:12.689Z,-1.90
2023-02-06T07:10:15.966Z,-2.00
2023-02-06T07:13:20.478Z,-1.90
2023-02-06T07:16:24.652Z,-1.90
2023-02-06T07:19:27.921Z,-1.90
2023-02-06T07:22:31.098Z,-1.90
2023-02-06T07:25:34.732Z,-2.00
2023-02-06T07:28:39.838Z,-2.00
2023-02-06T07:31:43.029Z,-1.80
2023-02-06T07:34:46.226Z,-1.90
2023-02-06T07:37:49.425Z,-1.80
2023-02-06T07:40:52.572Z,-1.60
2023-02-06T07:43:57.141Z,-1.40
2023-02-06T07:47:00.369Z,-1.30
2023-02-06T07:50:04.352Z,-1.20
2023-02-06T07:53:07.941Z,-0.90
2023-02-06T07:56:13.080Z,-0.80
2023-02-06T07:59:19.568Z,-0.80
2023-02-06T08:02:22.711Z,-0.90
2023-02-06T08:05:26.016Z,-0.80
2023-02-06T08:08:29.385Z,-0.90
2023-02-06T08:11:32.763Z,-0.80
2023-02-06T08:14:37.305Z,-0.60
2023-02-06T08:17:42.777Z,-0.40
2023-02-06T08:20:46.066Z,-0.20
2023-02-06T08:23:54.928Z,-0.30
2023-02-06T08:26:58.307Z,-0.30
2023-02-06T08:30:02.869Z,-0.10
2023-02-06T08:33:06.554Z,-0.10
2023-02-06T08:36:10.722Z,-0.10
2023-02-06T08:39:15.298Z,-0.20
2023-02-06T08:42:18.475Z,-0.20
2023-02-06T08:45:23.018Z,-0.20
2023-02-06T08:48:26.889Z,0.10
2023-02-06T08:51:30.445Z,0.30
2023-02-06T08:54:35.931Z,0.60
2023-02-06T08:57:40.024Z,0.80
2023-02-06T09:00:44.663Z,1.00
2023-02-06T09:03:48.624Z,1.20
2023-02-06T09:06:52.216Z,1.30
2023-02-06T09:09:55.433Z,1.50
2023-02-06T09:12:58.579Z,1.60
2023-02-06T09:16:03.199Z,1.60
2023-02-06T09:19:07.008Z,1.70
2023-02-06T09:22:10.131Z,2.00
2023-02-06T09:25:13.553Z,2.20
2023-02-06T09:28:18.014Z,2.30
2023-02-06T09:31:22.649Z,2.10
2023-02-06T09:34:26.531Z,2.10
2023-02-06T09:37:29.717Z,2.20
2023-02-06T09:40:36.306Z,2.20
2023-02-06T09:43:40.011Z,2.40
2023-02-06T09:46:49.614Z,2.40
2023-02-06T09:49:55.755Z,2.60
2023-02-06T09:53:13.160Z,4.00
2023-02-06T09:56:22.844Z,7.60
2023-02-06T09:59:32.032Z,9.60
2023-02-06T10:03:11.290Z,10.60
2023-02-06T10:06:19.898Z,12.60
2023-02-06T10:09:27.200Z,13.30
2023-02-06T10:12:37.142Z,13.70
2023-02-06T10:15:46.378Z,12.80
2023-02-06T10:18:54.099Z,10.60
2023-02-06T10:22:03.512Z,11.00
2023-02-06T10:25:28.062Z,13.50
2023-02-06T10:28:32.639Z,16.10
2023-02-06T10:31:51.454Z,17.80
2023-02-06T10:35:30.930Z,19.50
2023-02-06T10:38:52.480Z,21.40
2023-02-06T10:42:04.540Z,23.30
2023-02-06T10:45:20.106Z,24.50
2023-02-06T10:48:33.055Z,24.00
2023-02-06T10:51:42.578Z,24.00
2023-02-06T10:54:51.921Z,23.90
2023-02-06T10:58:06.630Z,24.40
2023-02-06T11:01:25.020Z,23.10
2023-02-06T11:04:35.742Z,19.40
2023-02-06T11:07:43.377Z,15.80
2023-02-06T11:10:46.819Z,14.10
2023-02-06T11:13:54.021Z,12.80
2023-02-06T11:17:00.059Z,11.40
2023-02-06T11:20:17.580Z,9.40
2023-02-06T11:23:23.999Z,8.70
2023-02-06T11:26:27.237Z,8.40
2023-02-06T11:29:35.900Z,8.40
2023-02-06T11:32:52.782Z,8.60
2023-02-06T11:36:08.761Z,9.20
2023-02-06T11:39:24.204Z,10.50
2023-02-06T11:42:28.490Z,12.30
2023-02-06T11:45:33.945Z,12.20
2023-02-06T11:48:39.568Z,11.60
2023-02-06T11:51:52.434Z,11.70
2023-02-06T11:55:01.860Z,13.60
2023-02-06T11:58:18.512Z,16.70
2023-02-06T12:01:23.587Z,19.40
2023-02-06T12:04:32.432Z,20.60
2023-02-06T12:07:40.348Z,19.30
2023-02-06T12:10:55.410Z,16.90
2023-02-06T12:14:02.910Z,14.30
2023-02-06T12:17:17.970Z,12.30
2023-02-06T12:20:26.465Z,11.00
2023-02-06T12:23:35.435Z,8.70
2023-02-06T12:26:40.160Z,8.80
2023-02-06T12:29:58.034Z,8.80
2023-02-06T12:33:08.456Z,8.40
2023-02-06T12:36:17.446Z,7.80
2023-02-06T12:39:23.156Z,7.80
2023-02-06T12:42:43.532Z,8.10
2023-02-06T12:45:52.027Z,8.70
2023-02-06T12:48:59.870Z,9.80
2023-02-06T12:52:10.477Z,9.40
2023-02-06T12:55:20.910Z,8.30
2023-02-06T12:58:29.227Z,7.70
2023-02-06T13:01:56.855Z,6.90
2023-02-06T13:05:05.724Z,6.20
2023-02-06T13:08:12.353Z,5.80
2023-02-06T13:11:29.695Z,5.30
2023-02-06T13:14:36.042Z,4.90
2023-02-06T13:17:43.031Z,4.60
2023-02-06T13:21:17.157Z,4.20
2023-02-06T13:24:21.860Z,4.10
2023-02-06T13:27:25.856Z,4.00
2023-02-06T13:30:51.142Z,4.00
2023-02-06T13:33:58.778Z,3.90
2023-02-06T13:37:21.635Z,4.00
2023-02-06T13:40:32.310Z,4.00
2023-02-06T13:43:37.494Z,3.80
2023-02-06T13:47:16.234Z,3.30
2023-02-06T13:50:44.887Z,3.30
2023-02-06T13:54:19.945Z,3.10
2023-02-06T13:57:39.145Z,3.00
2023-02-06T14:00:47.291Z,3.00
2023-02-06T14:03:54.164Z,2.60
2023-02-06T14:07:22.020Z,2.60
2023-02-06T14:11:02.899Z,2.40
2023-02-06T14:14:28.351Z,2.50
2023-02-06T14:17:46.424Z,2.50
2023-02-06T14:21:02.026Z,2.60
2023-02-06T14:24:44.225Z,2.60
2023-02-06T14:27:57.921Z,2.50
2023-02-06T14:31:12.681Z,2.40
2023-02-06T14:34:31.497Z,2.50
2023-02-06T14:37:55.506Z,2.60
2023-02-06T14:41:01.863Z,2.80
2023-02-06T14:44:12.057Z,2.70
2023-02-06T14:47:20.645Z,2.60
2023-02-06T14:50:26.410Z,2.70
2023-02-06T14:53:33.707Z,2.80
2023-02-06T14:56:38.635Z,2.70
2023-02-06T14:59:52.438Z,2.70
2023-02-06T15:03:08.062Z,2.80
2023-02-06T15:06:13.646Z,2.80
2023-02-06T15:09:30.139Z,2.60
2023-02-06T15:12:33.793Z,2.50
2023-02-06T15:15:37.223Z,2.30
2023-02-06T15:18:40.609Z,2.20
2023-02-06T15:21:44.237Z,2.10
2023-02-06T15:25:02.332Z,2.10
2023-02-06T15:28:07.509Z,2.20
2023-02-06T15:31:18.284Z,2.10
2023-02-06T15:34:25.521Z,1.90
2023-02-06T15:37:32.214Z,1.80
2023-02-06T15:40:39.125Z,1.80
2023-02-06T15:43:44.260Z,1.80
2023-02-06T15:46:49.282Z,1.80
2023-02-06T15:49:54.344Z,1.80
2023-02-06T15:52:57.699Z,1.80
2023-02-06T15:56:04.865Z,1.80
2023-02-06T15:59:16.029Z,1.70
2023-02-06T16:02:23.901Z,1.60
2023-02-06T16:05:31.510Z,1.60
2023-02-06T16:08:38.130Z,1.60
2023-02-06T16:11:50.677Z,1.50
2023-02-06T16:14:57.134Z,1.30
2023-02-06T16:18:02.579Z,1.30
2023-02-06T16:21:14.980Z,1.20
2023-02-06T16:24:19.191Z,1.10
2023-02-06T16:27:25.686Z,1.00
2023-02-06T16:30:32.690Z,1.00
2023-02-06T16:33:39.536Z,1.00
2023-02-06T16:36:43.612Z,0.90
2023-02-06T16:39:47.556Z,0.90
2023-02-06T16:42:52.596Z,0.90
2023-02-06T16:45:55.846Z,0.80
2023-02-06T16:49:00.611Z,0.70
2023-02-06T16:52:03.850Z,0.70
2023-02-06T16:55:07.935Z,0.70
2023-02-06T16:58:18.126Z,0.60
2023-02-06T17:01:25.506Z,0.70
2023-02-06T17:04:30.785Z,0.70
2023-02-06T17:07:35.179Z,0.70
2023-02-06T17:10:39.364Z,0.70
2023-02-06T17:13:44.566Z,0.70
2023-02-06T17:16:48.138Z,0.70
2023-02-06T17:19:52.870Z,0.70
2023-02-06T17:22:56.125Z,0.70
2023-02-06T17:25:59.387Z,0.60
2023-02-06T17:29:04.426Z,0.60
2023-02-06T17:32:09.313Z,0.60
2023-02-06T17:35:13.140Z,0.60
2023-02-06T17:38:17.552Z,0.60
2023-02-06T17:41:21.511Z,0.60
2023-02-06T17:44:26.116Z,0.60
2023-02-06T17:47:30.105Z,0.60
2023-02-06T17:50:34.349Z,0.60
2023-02-06T17:53:37.926Z,0.60
2023-02-06T17:56:41.491Z,0.60
2023-02-06T17:59:47.051Z,0.70
2023-02-06T18:02:52.041Z,0.70
2023-02-06T18:06:00.785Z,0.70
2023-02-06T18:09:04.947Z,0.70
2023-02-06T18:12:08.960Z,0.60
2023-02-06T18:15:15.856Z,0.60
2023-02-06T18:18:20.421Z,0.60
2023-02-06T18:21:25.591Z,0.60
2023-02-06T18:24:31.391Z,0.50
2023-02-06T18:27:36.749Z,0.50
2023-02-06T18:30:44.228Z,0.50
2023-02-06T18:33:48.573Z,0.50
2023-02-06T18:36:52.851Z,0.50
2023-02-06T18:39:57.000Z,0.50
2023-02-06T18:43:02.822Z,0.40
2023-02-06T18:46:11.065Z,0.40
2023-02-06T18:49:16.445Z,0.30
2023-02-06T18:52:21.771Z,0.20
2023-02-06T18:55:29.948Z,0.20
2023-02-06T18:58:36.105Z,0.20
2023-02-06T19:01:44.221Z,0.10
2023-02-06T19:04:49.866Z,0.10
2023-02-06T19:07:55.139Z,0.10
2023-02-06T19:11:00.200Z,0.10
2023-02-06T19:14:05.168Z,0.10
2023-02-06T19:17:11.196Z,0.00
2023-02-06T19:20:15.100Z,0.00
2023-02-06T19:23:19.562Z,0.00
2023-02-06T19:26:24.627Z,-0.10
2023-02-06T19:29:36.438Z,-0.20
2023-02-06T19:32:42.424Z,-0.10
2023-02-06T19:35:48.872Z,-0.20
2023-02-06T19:38:56.998Z,-0.20
2023-02-06T19:42:02.470Z,-0.30
2023-02-06T19:45:08.617Z,-0.30
2023-02-06T19:48:15.681Z,-0.30
2023-02-06T19:51:21.707Z,-0.30
2023-02-06T19:54:26.455Z,-0.40
2023-02-06T19:57:31.570Z,-0.40
2023-02-06T20:00:38.150Z,-0.50
2023-02-06T20:03:44.724Z,-0.60
2023-02-06T20:06:51.516Z,-0.60
2023-02-06T20:09:55.988Z,-0.60
2023-02-06T20:13:01.290Z,-0.70
2023-02-06T20:16:07.078Z,-0.70
2023-02-06T20:19:15.964Z,-0.70
2023-02-06T20:22:20.499Z,-0.70
2023-02-06T20:25:24.785Z,-0.80
2023-02-06T20:28:32.693Z,-0.80
2023-02-06T20:31:38.499Z,-0.80
2023-02-06T20:34:44.110Z,-0.80
2023-02-06T20:37:49.504Z,-0.80
2023-02-06T20:40:55.020Z,-0.90
2023-02-06T20:43:59.900Z,-0.90
2023-02-06T20:47:04.916Z,-1.00
2023-02-06T20:50:11.296Z,-1.00
2023-02-06T20:53:15.301Z,-1.10
2023-02-06T20:56:21.698Z,-1.10
2023-02-06T20:59:29.343Z,-1.10
2023-02-06T21:02:34.132Z,-1.10
2023-02-06T21:05:39.522Z,-1.20
2023-02-06T21:08:43.783Z,-1.30
2023-02-06T21:11:50.658Z,-1.30
2023-02-06T21:14:54.083Z,-1.30
2023-02-06T21:17:58.502Z,-1.30
2023-02-06T21:21:09.771Z,-1.30
2023-02-06T21:24:13.557Z,-1.30
2023-02-06T21:27:17.043Z,-1.30
2023-02-06T21:30:20.462Z,-1.40
2023-02-06T21:33:23.823Z,-1.40
2023-02-06T21:36:29.554Z,-1.40
2023-02-06T21:39:33.139Z,-1.40
2023-02-06T21:42:36.351Z,-1.40
2023-02-06T21:45:40.130Z,-1.40
2023-02-06T21:48:43.687Z,-1.50
2023-02-06T21:51:48.254Z,-1.40
2023-02-06T21:54:51.475Z,-1.40
2023-02-06T21:57:54.624Z,-1.40
2023-02-06T22:00:58.211Z,-1.50
2023-02-06T22:04:02.037Z,-1.50
2023-02-06T22:07:08.304Z,-1.60
2023-02-06T22:10:11.896Z,-1.50
2023-02-06T22:13:15.064Z,-1.60
2023-02-06T22:16:20.890Z,-1.60
2023-02-06T22:19:24.077Z,-1.60
2023-02-06T22:22:28.692Z,-1.50
2023-02-06T22:25:31.871Z,-1.60
2023-02-06T22:28:35.279Z,-1.60
2023-02-06T22:31:40.370Z,-1.60
2023-02-06T22:34:43.560Z,-1.60
2023-02-06T22:37:48.277Z,-1.60
2023-02-06T22:40:59.363Z,-1.60
2023-02-06T22:44:02.813Z,-1.70
2023-02-06T22:47:06.016Z,-1.70
2023-02-06T22:50:09.621Z,-1.70
2023-02-06T22:53:32.355Z,-1.70
2023-02-06T22:56:37.275Z,-1.70
2023-02-06T22:59:40.596Z,-1.70
2023-02-06T23:02:43.956Z,-1.60
2023-02-06T23:05:47.058Z,-1.70
2023-02-06T23:08:52.202Z,-1.70
2023-02-06T23:11:58.176Z,-1.80
2023-02-06T23:15:01.339Z,-1.80
2023-02-06T23:18:04.572Z,-1.80
2023-02-06T23:21:10.837Z,-1.80
2023-02-06T23:24:15.996Z,-1.90
2023-02-06T23:27:19.749Z,-2.00
2023-02-06T23:30:22.954Z,-2.00
2023-02-06T23:33:26.181Z,-2.00
2023-02-06T23:36:30.116Z,-2.00
2023-02-06T23:39:34.640Z,-2.10
2023-02-06T23:42:37.853Z,-2.10
2023-02-06T23:45:41.492Z,-2.10
2023-02-06T23:48:44.858Z,-2.10
2023-02-06T23:51:47.957Z,-2.20
2023-02-06T23:54:52.479Z,-2.20
2023-02-06T23:57:55.807Z,-2.20
